Cforst, are you okay man???

UnAnswerd

Activity Terminated
Joined
Sep 13, 2004
Posts
607
Total Time
NA
Just saw it on the news. Someone in Florida flipped a small Cessna right over after "landing".
 

414Flyer

Down with Chemtrails!
Joined
Jan 20, 2002
Posts
4,948
Total Time
4200
Well if the pilot looks like John Kerry in drag, we will know it is him :)
 

FN FAL

Freight Dawgs Rule
Joined
Dec 17, 2003
Posts
8,573
Total Time
7,000+
Freak Gusts...was that in the TAF?
 

Fly_Chick

Member
Joined
Sep 16, 2004
Posts
311
Total Time
~1300
Good thing those strong winds weren't around yesterday to affect the shuttle landing!

KSFB 230453Z 17006KT 10SM CLR 29/24 A2994 RMK AO2 SLP136 T02890239 403560261
KSFB 230353Z VRB05KT 10SM OVC034 29/24 A2994 RMK AO2 SLP135 T02940239
KSFB 230253Z 15007KT 10SM CLR 28/24 A2992 RMK AO2 SLP130 T02830239 51015
KSFB 230153Z 14006KT 10SM SCT055 29/23 A2992 RMK AO2 SLP129 T02890233
KSFB 230053Z 13007KT 10SM CLR 29/22 A2990 RMK AO2 SLP124 T02940222
KSFB 222353Z 13009KT 10SM CLR 31/22 A2988 RMK AO2 SLP116 T03060222 10356 20306 53006
KSFB 222253Z 11010KT 10SM CLR 32/22 A2986 RMK AO2 SLP109 T03220222
KSFB 222053Z AUTO 09010KT 10SM CLR 33/23 A2986 RMK AO2 SLP109 T03330233 58023 TSNO
KSFB 221953Z AUTO 12006KT 10SM CLR 35/20 A2988 RMK AO2 SLP118 T03500200 TSNO
KSFB 221853Z VRB05KT 10SM CLR 35/22 A2990 RMK AO2 SLP124 T03500217
KSFB 221753Z VRB05KT 10SM CLR 34/22 A2993 RMK AO2 SLP132 T03440217 10350 20267 58007
 

gkrangers

college = debt
Joined
May 21, 2004
Posts
1,405
Total Time
some
FN FAL said:
Freak Gusts...was that in the TAF?
Yeah, it caused a tail spin. The aircraft was spiraling towards the ground tail first.
 

Midnight Flyer

Stay Thirsty My Friends
Joined
Mar 6, 2005
Posts
1,104
maybe he hit an "air pocket"
 

wrigley23

I got that goin' for me
Joined
Mar 6, 2004
Posts
299
Total Time
7000
DCA student on first solo? Yikes. Putting your signature in that student pilot's logbook was always a leap of faith. :eek:
 
Top